sensor_id;sensor_type;location;lat;lon;timestamp;pressure;altitude;pressure_sealevel;temperature;humidity
70544;BME280;58097;48.364;-1.224;2024-01-30T00:00:20;100645.06;;;10.70;100.00
70544;BME280;58097;48.364;-1.224;2024-01-30T00:02:46;100643.75;;;10.74;100.00
70544;BME280;58097;48.364;-1.224;2024-01-30T00:05:11;100639.09;;;10.75;100.00
70544;BME280;58097;48.364;-1.224;2024-01-30T00:07:37;100649.00;;;10.77;100.00
70544;BME280;58097;48.364;-1.224;2024-01-30T00:10:02;100660.19;;;10.76;100.00
70544;BME280;58097;48.364;-1.224;2024-01-30T00:12:28;100646.50;;;10.74;100.00
70544;BME280;58097;48.364;-1.224;2024-01-30T00:14:53;100653.94;;;10.74;100.00
70544;BME280;58097;48.364;-1.224;2024-01-30T00:17:19;100654.81;;;10.74;100.00
70544;BME280;58097;48.364;-1.224;2024-01-30T00:19:46;100660.34;;;10.74;100.00
70544;BME280;58097;48.364;-1.224;2024-01-30T00:22:11;100671.41;;;10.74;100.00
70544;BME280;58097;48.364;-1.224;2024-01-30T00:24:36;100671.25;;;10.76;100.00
70544;BME280;58097;48.364;-1.224;2024-01-30T00:27:02;100661.06;;;10.76;100.00
70544;BME280;58097;48.364;-1.224;2024-01-30T00:29:27;100652.78;;;10.76;100.00
70544;BME280;58097;48.364;-1.224;2024-01-30T00:31:56;100653.66;;;10.77;100.00
70544;BME280;58097;48.364;-1.224;2024-01-30T00:34:21;100658.31;;;10.76;100.00
70544;BME280;58097;48.364;-1.224;2024-01-30T00:36:47;100652.91;;;10.75;100.00
70544;BME280;58097;48.364;-1.224;2024-01-30T00:39:12;100653.94;;;10.74;100.00
70544;BME280;58097;48.364;-1.224;2024-01-30T00:41:37;100649.44;;;10.73;100.00
70544;BME280;58097;48.364;-1.224;2024-01-30T00:44:03;100650.31;;;10.73;100.00
70544;BME280;58097;48.364;-1.224;2024-01-30T00:46:28;100658.44;;;10.75;100.00
70544;BME280;58097;48.364;-1.224;2024-01-30T00:48:53;100658.31;;;10.76;100.00
70544;BME280;58097;48.364;-1.224;2024-01-30T00:51:19;100660.03;;;10.77;100.00
70544;BME280;58097;48.364;-1.224;2024-01-30T00:53:45;100665.44;;;10.79;100.00
70544;BME280;58097;48.364;-1.224;2024-01-30T00:56:10;100671.97;;;10.78;100.00
70544;BME280;58097;48.364;-1.224;2024-01-30T00:58:35;100672.13;;;10.76;100.00
70544;BME280;58097;48.364;-1.224;2024-01-30T01:01:01;100667.31;;;10.78;100.00
70544;BME280;58097;48.364;-1.224;2024-01-30T01:03:26;100655.38;;;10.78;100.00
70544;BME280;58097;48.364;-1.224;2024-01-30T01:05:51;100665.44;;;10.79;100.00
70544;BME280;58097;48.364;-1.224;2024-01-30T01:08:17;100658.72;;;10.81;100.00
70544;BME280;58097;48.364;-1.224;2024-01-30T01:10:43;100661.50;;;10.81;100.00
70544;BME280;58097;48.364;-1.224;2024-01-30T01:13:08;100668.78;;;10.82;100.00
70544;BME280;58097;48.364;-1.224;2024-01-30T01:15:33;100672.41;;;10.83;100.00
70544;BME280;58097;48.364;-1.224;2024-01-30T01:17:59;100663.97;;;10.84;100.00
70544;BME280;58097;48.364;-1.224;2024-01-30T01:20:24;100669.34;;;10.86;100.00
70544;BME280;58097;48.364;-1.224;2024-01-30T01:22:49;100666.44;;;10.88;100.00
70544;BME280;58097;48.364;-1.224;2024-01-30T01:25:15;100679.53;;;10.85;100.00
70544;BME280;58097;48.364;-1.224;2024-01-30T01:27:40;100683.31;;;10.84;100.00
70544;BME280;58097;48.364;-1.224;2024-01-30T01:30:10;100687.13;;;10.83;100.00
70544;BME280;58097;48.364;-1.224;2024-01-30T01:32:36;100691.19;;;10.79;100.00
70544;BME280;58097;48.364;-1.224;2024-01-30T01:35:03;100680.13;;;10.79;100.00
70544;BME280;58097;48.364;-1.224;2024-01-30T01:37:30;100687.41;;;10.80;100.00
70544;BME280;58097;48.364;-1.224;2024-01-30T01:39:56;100693.66;;;10.82;100.00
70544;BME280;58097;48.364;-1.224;2024-01-30T01:42:21;100696.13;;;10.85;100.00
70544;BME280;58097;48.364;-1.224;2024-01-30T01:44:47;100696.13;;;10.85;100.00
70544;BME280;58097;48.364;-1.224;2024-01-30T01:47:12;100693.06;;;10.89;100.00
70544;BME280;58097;48.364;-1.224;2024-01-30T01:49:38;100705.75;;;10.91;100.00
70544;BME280;58097;48.364;-1.224;2024-01-30T01:52:04;100708.50;;;10.91;100.00
70544;BME280;58097;48.364;-1.224;2024-01-30T01:54:30;100705.00;;;10.89;100.00
70544;BME280;58097;48.364;-1.224;2024-01-30T01:56:55;100711.56;;;10.88;100.00
70544;BME280;58097;48.364;-1.224;2024-01-30T01:59:22;100711.56;;;10.88;100.00
70544;BME280;58097;48.364;-1.224;2024-01-30T02:01:48;100706.19;;;10.86;100.00
70544;BME280;58097;48.364;-1.224;2024-01-30T02:04:14;100713.31;;;10.89;100.00
70544;BME280;58097;48.364;-1.224;2024-01-30T02:06:40;100721.31;;;10.92;100.00
70544;BME280;58097;48.364;-1.224;2024-01-30T02:09:06;100718.25;;;10.95;100.00
70544;BME280;58097;48.364;-1.224;2024-01-30T02:11:32;100718.09;;;10.97;100.00
70544;BME280;58097;48.364;-1.224;2024-01-30T02:14:02;100720.00;;;10.96;100.00
70544;BME280;58097;48.364;-1.224;2024-01-30T02:16:29;100727.16;;;10.99;100.00
70544;BME280;58097;48.364;-1.224;2024-01-30T02:18:55;100726.41;;;10.97;100.00
70544;BME280;58097;48.364;-1.224;2024-01-30T02:21:20;100723.78;;;10.95;100.00
70544;BME280;58097;48.364;-1.224;2024-01-30T02:23:49;100730.47;;;10.93;100.00
70544;BME280;58097;48.364;-1.224;2024-01-30T02:26:15;100729.91;;;10.89;100.00
70544;BME280;58097;48.364;-1.224;2024-01-30T02:28:41;100728.31;;;10.86;100.00
70544;BME280;58097;48.364;-1.224;2024-01-30T02:31:06;100730.03;;;10.88;100.00
70544;BME280;58097;48.364;-1.224;2024-01-30T02:33:31;100723.34;;;10.90;100.00
70544;BME280;58097;48.364;-1.224;2024-01-30T02:35:57;100715.94;;;10.91;100.00
70544;BME280;58097;48.364;-1.224;2024-01-30T02:38:22;100718.25;;;10.95;100.00
70544;BME280;58097;48.364;-1.224;2024-01-30T02:40:49;100718.09;;;10.97;100.00
70544;BME280;58097;48.364;-1.224;2024-01-30T02:43:15;100716.38;;;10.96;100.00
70544;BME280;58097;48.364;-1.224;2024-01-30T02:45:40;100731.06;;;10.96;100.00
70544;BME280;58097;48.364;-1.224;2024-01-30T02:48:06;100733.84;;;10.96;100.00
70544;BME280;58097;48.364;-1.224;2024-01-30T02:50:31;100734.84;;;10.95;100.00
70544;BME280;58097;48.364;-1.224;2024-01-30T02:52:57;100738.50;;;10.96;100.00
70544;BME280;58097;48.364;-1.224;2024-01-30T02:55:22;100742.28;;;10.95;100.00
70544;BME280;58097;48.364;-1.224;2024-01-30T02:57:47;100729.47;;;10.94;100.00
70544;BME280;58097;48.364;-1.224;2024-01-30T03:00:13;100739.22;;;10.98;100.00
70544;BME280;58097;48.364;-1.224;2024-01-30T03:02:39;100733.56;;;10.99;100.00
70544;BME280;58097;48.364;-1.224;2024-01-30T03:05:05;100729.03;;;10.98;100.00
70544;BME280;58097;48.364;-1.224;2024-01-30T03:07:31;100739.38;;;10.96;100.00
70544;BME280;58097;48.364;-1.224;2024-01-30T03:09:56;100737.75;;;10.94;100.00
70544;BME280;58097;48.364;-1.224;2024-01-30T03:12:22;100748.97;;;10.92;100.00
70544;BME280;58097;48.364;-1.224;2024-01-30T03:14:47;100749.13;;;10.91;100.00
70544;BME280;58097;48.364;-1.224;2024-01-30T03:17:14;100747.94;;;10.93;100.00
70544;BME280;58097;48.364;-1.224;2024-01-30T03:19:39;100754.50;;;10.92;100.00
70544;BME280;58097;48.364;-1.224;2024-01-30T03:22:05;100745.47;;;10.90;100.00
70544;BME280;58097;48.364;-1.224;2024-01-30T03:24:31;100749.13;;;10.91;100.00
70544;BME280;58097;48.364;-1.224;2024-01-30T03:26:56;100756.69;;;10.89;100.00
70544;BME280;58097;48.364;-1.224;2024-01-30T03:29:21;100747.94;;;10.83;100.00
70544;BME280;58097;48.364;-1.224;2024-01-30T03:31:47;100753.03;;;10.78;100.00
70544;BME280;58097;48.364;-1.224;2024-01-30T03:34:12;100753.47;;;10.74;100.00
70544;BME280;58097;48.364;-1.224;2024-01-30T03:36:37;100759.13;;;10.72;100.00
70544;BME280;58097;48.364;-1.224;2024-01-30T03:39:03;100753.13;;;10.67;100.00
70544;BME280;58097;48.364;-1.224;2024-01-30T03:41:28;100756.03;;;10.66;100.00
70544;BME280;58097;48.364;-1.224;2024-01-30T03:43:53;100759.81;;;10.65;100.00
70544;BME280;58097;48.364;-1.224;2024-01-30T03:46:19;100752.69;;;10.62;100.00
70544;BME280;58097;48.364;-1.224;2024-01-30T03:48:45;100753.69;;;10.61;100.00
70544;BME280;58097;48.364;-1.224;2024-01-30T03:51:10;100750.94;;;10.61;100.00
70544;BME280;58097;48.364;-1.224;2024-01-30T03:53:40;100742.94;;;10.58;100.00
70544;BME280;58097;48.364;-1.224;2024-01-30T03:56:07;100744.97;;;10.56;100.00
70544;BME280;58097;48.364;-1.224;2024-01-30T03:58:32;100749.75;;;10.54;100.00
70544;BME280;58097;48.364;-1.224;2024-01-30T04:00:57;100750.78;;;10.53;100.00
70544;BME280;58097;48.364;-1.224;2024-01-30T04:03:23;100750.03;;;10.51;100.00
70544;BME280;58097;48.364;-1.224;2024-01-30T04:05:48;100761.25;;;10.49;100.00
70544;BME280;58097;48.364;-1.224;2024-01-30T04:08:13;100756.88;;;10.47;100.00
70544;BME280;58097;48.364;-1.224;2024-01-30T04:10:39;100764.28;;;10.46;100.00
70544;BME280;58097;48.364;-1.224;2024-01-30T04:13:04;100762.41;;;10.47;100.00
70544;BME280;58097;48.364;-1.224;2024-01-30T04:15:29;100768.22;;;10.44;100.00
70544;BME280;58097;48.364;-1.224;2024-01-30T04:17:57;100767.47;;;10.42;100.00
70544;BME280;58097;48.364;-1.224;2024-01-30T04:20:24;100761.19;;;10.40;100.00
70544;BME280;58097;48.364;-1.224;2024-01-30T04:22:49;100763.50;;;10.35;100.00
70544;BME280;58097;48.364;-1.224;2024-01-30T04:25:15;100771.78;;;10.35;100.00
70544;BME280;58097;48.364;-1.224;2024-01-30T04:27:40;100777.47;;;10.33;100.00
70544;BME280;58097;48.364;-1.224;2024-01-30T04:30:06;100777.59;;;10.32;100.00
70544;BME280;58097;48.364;-1.224;2024-01-30T04:32:32;100775.84;;;10.31;100.00
70544;BME280;58097;48.364;-1.224;2024-01-30T04:34:57;100770.31;;;10.31;100.00
70544;BME280;58097;48.364;-1.224;2024-01-30T04:37:23;100765.81;;;10.30;100.00
70544;BME280;58097;48.364;-1.224;2024-01-30T04:39:48;100772.34;;;10.29;100.00
70544;BME280;58097;48.364;-1.224;2024-01-30T04:42:13;100773.22;;;10.29;100.00
70544;BME280;58097;48.364;-1.224;2024-01-30T04:44:39;100770.59;;;10.28;100.00
70544;BME280;58097;48.364;-1.224;2024-01-30T04:47:04;100765.94;;;10.28;100.00
70544;BME280;58097;48.364;-1.224;2024-01-30T04:49:31;100775.97;;;10.29;100.00
70544;BME280;58097;48.364;-1.224;2024-01-30T04:51:56;100792.56;;;10.29;100.00
70544;BME280;58097;48.364;-1.224;2024-01-30T04:54:22;100795.47;;;10.28;100.00
70544;BME280;58097;48.364;-1.224;2024-01-30T04:56:48;100798.09;;;10.29;100.00
70544;BME280;58097;48.364;-1.224;2024-01-30T04:59:13;100796.34;;;10.28;100.00
70544;BME280;58097;48.364;-1.224;2024-01-30T05:01:38;100803.75;;;10.28;100.00
70544;BME280;58097;48.364;-1.224;2024-01-30T05:04:07;100797.34;;;10.27;100.00
70544;BME280;58097;48.364;-1.224;2024-01-30T05:06:32;100809.28;;;10.28;100.00
70544;BME280;58097;48.364;-1.224;2024-01-30T05:08:58;100800.13;;;10.27;100.00
70544;BME280;58097;48.364;-1.224;2024-01-30T05:11:23;100803.75;;;10.28;100.00
70544;BME280;58097;48.364;-1.224;2024-01-30T05:13:48;100812.03;;;10.28;100.00
70544;BME280;58097;48.364;-1.224;2024-01-30T05:16:14;100815.53;;;10.30;100.00
70544;BME280;58097;48.364;-1.224;2024-01-30T05:18:39;100810.00;;;10.30;100.00
70544;BME280;58097;48.364;-1.224;2024-01-30T05:21:05;100822.81;;;10.31;100.00
70544;BME280;58097;48.364;-1.224;2024-01-30T05:23:30;100831.09;;;10.31;100.00
70544;BME280;58097;48.364;-1.224;2024-01-30T05:25:56;100830.38;;;10.29;100.00
70544;BME280;58097;48.364;-1.224;2024-01-30T05:28:21;100835.28;;;10.25;100.00
70544;BME280;58097;48.364;-1.224;2024-01-30T05:30:46;100837.56;;;10.20;100.00
70544;BME280;58097;48.364;-1.224;2024-01-30T05:33:12;100839.59;;;10.18;100.00
70544;BME280;58097;48.364;-1.224;2024-01-30T05:35:38;100842.50;;;10.16;100.00
70544;BME280;58097;48.364;-1.224;2024-01-30T05:38:04;100846.41;;;10.14;100.00
70544;BME280;58097;48.364;-1.224;2024-01-30T05:40:32;100842.75;;;10.13;100.00
70544;BME280;58097;48.364;-1.224;2024-01-30T05:42:58;100845.53;;;10.13;100.00
70544;BME280;58097;48.364;-1.224;2024-01-30T05:45:26;100845.78;;;10.10;100.00
70544;BME280;58097;48.364;-1.224;2024-01-30T05:47:52;100848.81;;;10.07;100.00
70544;BME280;58097;48.364;-1.224;2024-01-30T05:50:17;100858.38;;;10.03;100.00
70544;BME280;58097;48.364;-1.224;2024-01-30T05:52:42;100865.19;;;9.99;100.00
70544;BME280;58097;48.364;-1.224;2024-01-30T05:55:08;100864.56;;;9.96;100.00
70544;BME280;58097;48.364;-1.224;2024-01-30T05:57:33;100875.91;;;9.92;100.00
70544;BME280;58097;48.364;-1.224;2024-01-30T05:59:59;100879.66;;;9.91;100.00
70544;BME280;58097;48.364;-1.224;2024-01-30T06:02:24;100873.41;;;9.89;100.00
70544;BME280;58097;48.364;-1.224;2024-01-30T06:04:49;100884.44;;;9.89;100.00
70544;BME280;58097;48.364;-1.224;2024-01-30T06:07:15;100883.56;;;9.89;100.00
70544;BME280;58097;48.364;-1.224;2024-01-30T06:09:40;100892.88;;;9.88;100.00
70544;BME280;58097;48.364;-1.224;2024-01-30T06:12:06;100891.13;;;9.87;100.00
70544;BME280;58097;48.364;-1.224;2024-01-30T06:14:32;100895.03;;;9.84;100.00
70544;BME280;58097;48.364;-1.224;2024-01-30T06:16:58;100897.88;;;9.83;100.00
70544;BME280;58097;48.364;-1.224;2024-01-30T06:19:23;100894.66;;;9.78;100.00
70544;BME280;58097;48.364;-1.224;2024-01-30T06:21:49;100903.19;;;9.75;100.00
70544;BME280;58097;48.364;-1.224;2024-01-30T06:24:14;100898.97;;;9.71;100.00
70544;BME280;58097;48.364;-1.224;2024-01-30T06:26:39;100897.22;;;9.70;100.00
70544;BME280;58097;48.364;-1.224;2024-01-30T06:29:05;100899.22;;;9.68;100.00
70544;BME280;58097;48.364;-1.224;2024-01-30T06:31:30;100893.69;;;9.68;100.00
70544;BME280;58097;48.364;-1.224;2024-01-30T06:33:56;100900.22;;;9.67;100.00
70544;BME280;58097;48.364;-1.224;2024-01-30T06:36:21;100905.00;;;9.65;100.00
70544;BME280;58097;48.364;-1.224;2024-01-30T06:38:46;100900.91;;;9.59;100.00
70544;BME280;58097;48.364;-1.224;2024-01-30T06:41:12;100911.19;;;9.57;100.00
70544;BME280;58097;48.364;-1.224;2024-01-30T06:43:37;100907.78;;;9.53;100.00
70544;BME280;58097;48.364;-1.224;2024-01-30T06:46:03;100907.19;;;9.50;100.00
70544;BME280;58097;48.364;-1.224;2024-01-30T06:48:28;100916.47;;;9.49;100.00
70544;BME280;58097;48.364;-1.224;2024-01-30T06:50:54;100922.38;;;9.44;100.00
70544;BME280;58097;48.364;-1.224;2024-01-30T06:53:19;100919.88;;;9.41;100.00
70544;BME280;58097;48.364;-1.224;2024-01-30T06:55:44;100918.25;;;9.39;100.00
70544;BME280;58097;48.364;-1.224;2024-01-30T06:58:10;100926.66;;;9.37;100.00
70544;BME280;58097;48.364;-1.224;2024-01-30T07:00:35;100920.41;;;9.35;100.00
70544;BME280;58097;48.364;-1.224;2024-01-30T07:03:01;100922.41;;;9.33;100.00
70544;BME280;58097;48.364;-1.224;2024-01-30T07:05:27;100929.06;;;9.30;100.00
70544;BME280;58097;48.364;-1.224;2024-01-30T07:07:52;100921.94;;;9.28;100.00
70544;BME280;58097;48.364;-1.224;2024-01-30T07:10:17;100927.06;;;9.21;100.00
70544;BME280;58097;48.364;-1.224;2024-01-30T07:12:43;100930.06;;;9.18;100.00
70544;BME280;58097;48.364;-1.224;2024-01-30T07:15:08;100933.97;;;9.16;100.00
70544;BME280;58097;48.364;-1.224;2024-01-30T07:17:35;100930.47;;;9.14;100.00
70544;BME280;58097;48.364;-1.224;2024-01-30T07:20:01;100935.34;;;9.10;100.00
70544;BME280;58097;48.364;-1.224;2024-01-30T07:22:29;100930.97;;;9.08;100.00
70544;BME280;58097;48.364;-1.224;2024-01-30T07:24:54;100934.00;;;9.05;100.00
70544;BME280;58097;48.364;-1.224;2024-01-30T07:27:19;100942.41;;;9.03;100.00
70544;BME280;58097;48.364;-1.224;2024-01-30T07:29:46;100951.66;;;9.02;100.00
70544;BME280;58097;48.364;-1.224;2024-01-30T07:32:12;100957.31;;;9.00;100.00
70544;BME280;58097;48.364;-1.224;2024-01-30T07:34:37;100951.94;;;8.99;100.00
70544;BME280;58097;48.364;-1.224;2024-01-30T07:37:03;100957.66;;;8.96;100.00
70544;BME280;58097;48.364;-1.224;2024-01-30T07:39:28;100962.56;;;8.92;100.00
70544;BME280;58097;48.364;-1.224;2024-01-30T07:41:53;100954.53;;;8.89;100.00
70544;BME280;58097;48.364;-1.224;2024-01-30T07:44:19;100969.31;;;8.88;100.00
70544;BME280;58097;48.364;-1.224;2024-01-30T07:46:44;100968.81;;;8.83;100.00
70544;BME280;58097;48.364;-1.224;2024-01-30T07:49:09;100970.97;;;8.80;100.00
70544;BME280;58097;48.364;-1.224;2024-01-30T07:51:35;100976.59;;;8.78;100.00
70544;BME280;58097;48.364;-1.224;2024-01-30T07:54:00;100983.09;;;8.77;100.00
70544;BME280;58097;48.364;-1.224;2024-01-30T07:56:26;100986.00;;;8.76;100.00
70544;BME280;58097;48.364;-1.224;2024-01-30T07:58:51;100990.63;;;8.75;100.00
70544;BME280;58097;48.364;-1.224;2024-01-30T08:01:16;100995.13;;;8.76;100.00
70544;BME280;58097;48.364;-1.224;2024-01-30T08:03:42;100993.13;;;8.78;100.00
70544;BME280;58097;48.364;-1.224;2024-01-30T08:06:07;100997.88;;;8.76;100.00
70544;BME280;58097;48.364;-1.224;2024-01-30T08:08:32;101002.53;;;8.76;100.00
70544;BME280;58097;48.364;-1.224;2024-01-30T08:10:58;101006.16;;;8.76;100.00
70544;BME280;58097;48.364;-1.224;2024-01-30T08:13:23;101015.44;;;8.75;100.00
70544;BME280;58097;48.364;-1.224;2024-01-30T08:15:49;101016.19;;;8.77;100.00
70544;BME280;58097;48.364;-1.224;2024-01-30T08:18:14;101012.44;;;8.78;100.00
70544;BME280;58097;48.364;-1.224;2024-01-30T08:20:39;101025.31;;;8.78;100.00
70544;BME280;58097;48.364;-1.224;2024-01-30T08:23:04;101028.22;;;8.76;100.00
70544;BME280;58097;48.364;-1.224;2024-01-30T08:25:30;101025.44;;;8.76;100.00
70544;BME280;58097;48.364;-1.224;2024-01-30T08:27:55;101027.59;;;8.73;100.00
70544;BME280;58097;48.364;-1.224;2024-01-30T08:30:20;101030.59;;;8.69;100.00
70544;BME280;58097;48.364;-1.224;2024-01-30T08:32:46;101029.91;;;8.66;100.00
70544;BME280;58097;48.364;-1.224;2024-01-30T08:35:12;101034.94;;;8.61;100.00
70544;BME280;58097;48.364;-1.224;2024-01-30T08:37:39;101040.81;;;8.56;100.00
70544;BME280;58097;48.364;-1.224;2024-01-30T08:40:05;101041.06;;;8.53;100.00
70544;BME280;58097;48.364;-1.224;2024-01-30T08:42:33;101047.69;;;8.51;100.00
70544;BME280;58097;48.364;-1.224;2024-01-30T08:44:59;101053.44;;;8.48;100.00
70544;BME280;58097;48.364;-1.224;2024-01-30T08:47:24;101048.94;;;8.47;100.00
70544;BME280;58097;48.364;-1.224;2024-01-30T08:49:50;101059.06;;;8.46;100.00
70544;BME280;58097;48.364;-1.224;2024-01-30T08:52:15;101058.06;;;8.47;100.00
70544;BME280;58097;48.364;-1.224;2024-01-30T08:54:41;101065.22;;;8.50;100.00
70544;BME280;58097;48.364;-1.224;2024-01-30T08:57:06;101065.72;;;8.55;100.00
70544;BME280;58097;48.364;-1.224;2024-01-30T08:59:32;101068.34;;;8.56;100.00
70544;BME280;58097;48.364;-1.224;2024-01-30T09:01:57;101074.38;;;8.61;100.00
70544;BME280;58097;48.364;-1.224;2024-01-30T09:04:24;101072.38;;;8.63;100.00
70544;BME280;58097;48.364;-1.224;2024-01-30T09:06:49;101078.31;;;8.70;100.00
70544;BME280;58097;48.364;-1.224;2024-01-30T09:09:15;101075.94;;;8.77;100.00
70544;BME280;58097;48.364;-1.224;2024-01-30T09:11:40;101073.69;;;8.82;100.00
70544;BME280;58097;48.364;-1.224;2024-01-30T09:14:06;101077.59;;;8.90;100.00
70544;BME280;58097;48.364;-1.224;2024-01-30T09:16:31;101079.50;;;9.01;100.00
70544;BME280;58097;48.364;-1.224;2024-01-30T09:18:57;101085.41;;;9.08;100.00
70544;BME280;58097;48.364;-1.224;2024-01-30T09:21:22;101085.53;;;9.17;100.00
70544;BME280;58097;48.364;-1.224;2024-01-30T09:23:48;101102.59;;;9.34;100.00
70544;BME280;58097;48.364;-1.224;2024-01-30T09:26:13;101103.22;;;9.48;100.00
70544;BME280;58097;48.364;-1.224;2024-01-30T09:28:39;101105.50;;;9.66;100.00
70544;BME280;58097;48.364;-1.224;2024-01-30T09:31:04;101102.31;;;9.81;100.00
70544;BME280;58097;48.364;-1.224;2024-01-30T09:33:34;101107.72;;;9.94;100.00
70544;BME280;58097;48.364;-1.224;2024-01-30T09:36:00;101115.22;;;10.14;100.00
70544;BME280;58097;48.364;-1.224;2024-01-30T09:38:25;101117.44;;;10.32;100.00
70544;BME280;58097;48.364;-1.224;2024-01-30T09:40:54;101117.91;;;10.48;100.00
70544;BME280;58097;48.364;-1.224;2024-01-30T09:43:22;101105.50;;;10.63;100.00
70544;BME280;58097;48.364;-1.224;2024-01-30T09:45:50;101115.41;;;10.77;100.00
70544;BME280;58097;48.364;-1.224;2024-01-30T09:48:15;101115.78;;;10.93;100.00
70544;BME280;58097;48.364;-1.224;2024-01-30T09:50:41;101125.66;;;11.07;100.00
70544;BME280;58097;48.364;-1.224;2024-01-30T09:53:08;101122.81;;;11.18;100.00
70544;BME280;58097;48.364;-1.224;2024-01-30T09:55:35;101125.25;;;11.32;100.00
70544;BME280;58097;48.364;-1.224;2024-01-30T09:58:01;101126.44;;;11.39;100.00
70544;BME280;58097;48.364;-1.224;2024-01-30T10:00:26;101136.22;;;11.43;100.00
70544;BME280;58097;48.364;-1.224;2024-01-30T10:02:52;101144.84;;;11.50;100.00
70544;BME280;58097;48.364;-1.224;2024-01-30T10:05:18;101142.09;;;11.50;100.00
70544;BME280;58097;48.364;-1.224;2024-01-30T10:07:53;101141.81;;;11.53;100.00
70544;BME280;58097;48.364;-1.224;2024-01-30T10:10:22;101149.16;;;11.64;100.00
70544;BME280;58097;48.364;-1.224;2024-01-30T10:12:49;101144.78;;;11.61;100.00
70544;BME280;58097;48.364;-1.224;2024-01-30T10:15:14;101152.53;;;11.67;100.00
70544;BME280;58097;48.364;-1.224;2024-01-30T10:17:39;101149.94;;;11.75;100.00
70544;BME280;58097;48.364;-1.224;2024-01-30T10:20:05;101155.81;;;11.82;100.00
70544;BME280;58097;48.364;-1.224;2024-01-30T10:22:30;101158.06;;;11.88;100.00
70544;BME280;58097;48.364;-1.224;2024-01-30T10:24:56;101162.03;;;11.95;100.00
70544;BME280;58097;48.364;-1.224;2024-01-30T10:27:27;101168.75;;;12.02;100.00
70544;BME280;58097;48.364;-1.224;2024-01-30T10:29:54;101167.03;;;12.11;100.00
70544;BME280;58097;48.364;-1.224;2024-01-30T10:32:20;101166.19;;;12.20;100.00
70544;BME280;58097;48.364;-1.224;2024-01-30T10:34:46;101167.66;;;12.24;100.00
70544;BME280;58097;48.364;-1.224;2024-01-30T10:37:12;101167.09;;;12.30;100.00
70544;BME280;58097;48.364;-1.224;2024-01-30T10:39:41;101172.63;;;12.30;100.00
70544;BME280;58097;48.364;-1.224;2024-01-30T10:42:11;101176.88;;;12.34;100.00
70544;BME280;58097;48.364;-1.224;2024-01-30T10:44:43;101172.97;;;12.47;100.00
70544;BME280;58097;48.364;-1.224;2024-01-30T10:47:12;101174.28;;;12.52;100.00
70544;BME280;58097;48.364;-1.224;2024-01-30T10:49:41;101175.47;;;12.50;100.00
70544;BME280;58097;48.364;-1.224;2024-01-30T10:52:09;101171.91;;;12.38;100.00
70544;BME280;58097;48.364;-1.224;2024-01-30T10:54:35;101169.41;;;12.25;100.00
70544;BME280;58097;48.364;-1.224;2024-01-30T10:57:02;101168.38;;;12.17;100.00
70544;BME280;58097;48.364;-1.224;2024-01-30T10:59:29;101171.75;;;12.20;100.00
70544;BME280;58097;48.364;-1.224;2024-01-30T11:01:57;101171.75;;;12.30;100.00
70544;BME280;58097;48.364;-1.224;2024-01-30T11:04:23;101169.88;;;12.40;100.00
70544;BME280;58097;48.364;-1.224;2024-01-30T11:06:50;101167.00;;;12.51;100.00
70544;BME280;58097;48.364;-1.224;2024-01-30T11:09:17;101169.03;;;12.68;100.00
70544;BME280;58097;48.364;-1.224;2024-01-30T11:11:55;101180.19;;;12.78;100.00
70544;BME280;58097;48.364;-1.224;2024-01-30T11:14:25;101167.63;;;12.84;100.00
70544;BME280;58097;48.364;-1.224;2024-01-30T11:16:57;101162.06;;;12.84;100.00
70544;BME280;58097;48.364;-1.224;2024-01-30T11:19:24;101158.84;;;12.79;100.00
70544;BME280;58097;48.364;-1.224;2024-01-30T11:21:52;101170.66;;;12.71;100.00
70544;BME280;58097;48.364;-1.224;2024-01-30T11:24:22;101163.66;;;12.57;100.00
70544;BME280;58097;48.364;-1.224;2024-01-30T11:26:49;101167.72;;;12.53;100.00
70544;BME280;58097;48.364;-1.224;2024-01-30T11:29:17;101165.97;;;12.52;100.00
70544;BME280;58097;48.364;-1.224;2024-01-30T11:31:52;101171.09;;;12.57;100.00
70544;BME280;58097;48.364;-1.224;2024-01-30T11:34:19;101177.34;;;12.49;100.00
70544;BME280;58097;48.364;-1.224;2024-01-30T11:36:51;101170.03;;;12.38;100.00
70544;BME280;58097;48.364;-1.224;2024-01-30T11:39:19;101170.06;;;12.48;100.00
70544;BME280;58097;48.364;-1.224;2024-01-30T11:41:46;101170.38;;;12.64;100.00
70544;BME280;58097;48.364;-1.224;2024-01-30T11:44:12;101167.75;;;12.92;100.00
70544;BME280;58097;48.364;-1.224;2024-01-30T11:46:38;101162.78;;;13.15;100.00
70544;BME280;58097;48.364;-1.224;2024-01-30T11:49:03;101174.19;;;13.41;100.00
70544;BME280;58097;48.364;-1.224;2024-01-30T11:51:30;101168.88;;;13.57;100.00
70544;BME280;58097;48.364;-1.224;2024-01-30T11:53:57;101173.47;;;13.39;100.00
70544;BME280;58097;48.364;-1.224;2024-01-30T11:56:23;101166.91;;;13.20;100.00
70544;BME280;58097;48.364;-1.224;2024-01-30T11:58:50;101170.09;;;13.35;100.00
70544;BME280;58097;48.364;-1.224;2024-01-30T12:01:17;101168.50;;;13.32;100.00
70544;BME280;58097;48.364;-1.224;2024-01-30T12:03:43;101170.22;;;13.43;100.00
70544;BME280;58097;48.364;-1.224;2024-01-30T12:06:15;101182.03;;;13.55;100.00
70544;BME280;58097;48.364;-1.224;2024-01-30T12:08:40;101187.94;;;13.23;95.60
70544;BME280;58097;48.364;-1.224;2024-01-30T12:11:06;101186.59;;;12.98;98.48
70544;BME280;58097;48.364;-1.224;2024-01-30T12:13:32;101183.38;;;12.74;100.00
70544;BME280;58097;48.364;-1.224;2024-01-30T12:15:57;101190.66;;;12.55;100.00
70544;BME280;58097;48.364;-1.224;2024-01-30T12:18:23;101190.00;;;12.32;100.00
70544;BME280;58097;48.364;-1.224;2024-01-30T12:21:00;101192.44;;;12.16;100.00
70544;BME280;58097;48.364;-1.224;2024-01-30T12:23:27;101187.69;;;11.97;100.00
70544;BME280;58097;48.364;-1.224;2024-01-30T12:25:53;101190.38;;;11.78;100.00